Time;durP1;ratioP1;P1;durP2;ratioP2;P2;SDS_P1;SDS_P2;PMS_P1;PMS_P2;Temp;Humidity;BMP_temperature;BMP_pressure;BME280_temperature;BME280_humidity;BME280_pressure;Samples;Min_cycle;Max_cycle;Signal;HPM_P1;HPM_P2
2022/09/03 00:01:22;;;;;;;2.87;1.10;;;14.30;61.90;;;;;;5226508;28;20824;-52
2022/09/03 00:04:07;;;;;;;3.33;1.00;;;14.30;62.00;;;;;;5238981;28;20954;-51
2022/09/03 00:06:59;;;;;;;3.13;1.30;;;14.30;62.10;;;;;;5237484;28;20436;-49
2022/09/03 00:09:45;;;;;;;0.70;0.70;;;14.30;62.30;;;;;;5234650;28;20432;-52
2022/09/03 00:12:24;;;;;;;2.60;1.23;;;14.20;62.30;;;;;;5224101;28;20433;-51
2022/09/03 00:15:09;;;;;;;1.23;1.13;;;14.20;62.50;;;;;;5227573;28;20746;-51
2022/09/03 00:17:59;;;;;;;1.77;0.70;;;14.20;62.70;;;;;;5228377;28;20514;-50
2022/09/03 00:20:45;;;;;;;0.77;0.70;;;14.20;63.00;;;;;;5239079;28;20464;-52
2022/09/03 00:23:21;;;;;;;1.30;1.07;;;14.20;63.20;;;;;;5240889;28;20429;-52
2022/09/03 00:26:12;;;;;;;3.67;1.20;;;14.10;63.30;;;;;;5243838;28;20435;-50
2022/09/03 00:29:12;;;;;;;1.60;1.00;;;14.10;63.40;;;;;;5245324;28;20478;-53
2022/09/03 00:32:18;;;;;;;0.97;0.97;;;14.10;63.60;;;;;;5228666;28;20425;-53
2022/09/03 00:34:55;;;;;;;1.30;1.20;;;14.10;63.70;;;;;;5231943;28;20459;-50
2022/09/03 00:37:27;;;;;;;1.57;0.90;;;14.10;64.10;;;;;;5244965;28;20459;-51
2022/09/03 00:39:59;;;;;;;1.47;1.10;;;14.00;64.10;;;;;;5230035;28;20553;-53
2022/09/03 00:43:08;;;;;;;3.40;1.37;;;14.00;64.30;;;;;;5243096;28;20467;-49
2022/09/03 00:46:13;;;;;;;3.60;1.17;;;14.00;64.40;;;;;;5214359;28;20447;-52
2022/09/03 00:49:13;;;;;;;5.87;1.00;;;13.90;64.90;;;;;;5238467;28;20485;-50
2022/09/03 00:52:15;;;;;;;3.20;1.07;;;13.90;65.30;;;;;;5216367;28;20440;-52
2022/09/03 00:55:01;;;;;;;1.50;1.17;;;13.80;65.70;;;;;;5226443;28;20538;-51
2022/09/03 00:58:16;;;;;;;5.47;1.50;;;13.80;66.00;;;;;;5239303;28;20429;-52
2022/09/03 01:00:51;;;;;;;4.07;1.30;;;13.80;66.20;;;;;;5238213;28;20695;-50
2022/09/03 01:03:35;;;;;;;1.10;1.10;;;13.80;66.50;;;;;;5246509;28;20432;-51
2022/09/03 01:06:21;;;;;;;3.80;1.20;;;13.70;66.60;;;;;;5236716;28;20493;-51
2022/09/03 01:08:55;;;;;;;2.60;1.20;;;13.70;67.00;;;;;;5236529;28;20470;-51
2022/09/03 01:11:29;;;;;;;1.80;1.00;;;13.70;67.30;;;;;;5238587;28;20426;-50
2022/09/03 01:14:35;;;;;;;0.90;0.90;;;13.70;67.60;;;;;;5218283;28;20787;-52
2022/09/03 01:17:30;;;;;;;1.13;1.00;;;13.60;68.00;;;;;;5234914;28;20441;-52
2022/09/03 01:20:28;;;;;;;1.37;1.07;;;13.60;68.50;;;;;;5243988;28;20492;-52
2022/09/03 01:23:19;;;;;;;2.03;1.13;;;13.50;68.80;;;;;;5236180;28;20408;-51
2022/09/03 01:26:10;;;;;;;2.00;0.97;;;13.50;69.30;;;;;;5231311;28;20443;-48
2022/09/03 01:28:46;;;;;;;0.80;0.80;;;13.50;69.50;;;;;;5226048;28;20424;-50
2022/09/03 01:31:42;;;;;;;0.70;0.70;;;13.50;69.80;;;;;;5226716;28;20948;-50
2022/09/03 01:34:30;;;;;;;1.20;0.80;;;13.50;70.10;;;;;;5244933;28;20451;-50
2022/09/03 01:37:24;;;;;;;0.90;0.90;;;13.40;70.40;;;;;;5226525;28;20944;-51
2022/09/03 01:40:06;;;;;;;2.70;0.80;;;13.40;71.00;;;;;;5240247;28;20551;-50
2022/09/03 01:43:14;;;;;;;1.50;0.80;;;13.40;71.30;;;;;;5241694;28;20477;-51
2022/09/03 01:45:53;;;;;;;1.87;1.10;;;13.40;72.20;;;;;;5230007;28;20449;-49
2022/09/03 01:48:33;;;;;;;4.20;1.20;;;13.30;72.20;;;;;;5230921;28;20428;-48
2022/09/03 01:51:12;;;;;;;2.30;1.10;;;13.30;72.70;;;;;;5246341;28;20478;-50
2022/09/03 01:54:16;;;;;;;3.87;1.33;;;13.30;73.00;;;;;;5223170;28;20440;-51
2022/09/03 01:57:33;;;;;;;1.30;1.17;;;13.30;73.40;;;;;;5217129;28;20461;-50
2022/09/03 02:00:32;;;;;;;1.50;1.23;;;13.30;73.70;;;;;;5232490;28;20456;-52
2022/09/03 02:03:06;;;;;;;1.27;1.27;;;13.30;74.20;;;;;;5219434;28;20508;-52
2022/09/03 02:05:38;;;;;;;1.90;1.30;;;13.20;74.80;;;;;;5242833;28;20443;-49
2022/09/03 02:08:09;;;;;;;1.70;1.37;;;13.20;75.40;;;;;;5249912;28;20417;-51
2022/09/03 02:10:52;;;;;;;4.40;1.30;;;13.20;76.00;;;;;;5222231;28;20854;-51
2022/09/03 02:13:30;;;;;;;2.93;1.40;;;13.10;76.60;;;;;;5223458;28;20751;-52
2022/09/03 02:16:15;;;;;;;0.80;0.80;;;13.10;77.10;;;;;;5229554;28;20512;-52
2022/09/03 02:18:51;;;;;;;1.93;1.20;;;13.00;77.70;;;;;;5225601;28;20432;-50
2022/09/03 02:21:24;;;;;;;1.33;1.23;;;13.00;78.10;;;;;;5232044;28;20479;-49
2022/09/03 02:23:55;;;;;;;1.17;1.07;;;13.00;78.50;;;;;;5230319;28;20486;-53
2022/09/03 02:26:26;;;;;;;2.20;1.23;;;13.00;79.30;;;;;;5226443;28;20453;-50
2022/09/03 02:28:57;;;;;;;0.90;0.90;;;13.00;79.80;;;;;;5228176;28;20205;-50
2022/09/03 02:31:27;;;;;;;3.00;0.93;;;12.90;80.40;;;;;;5242096;28;20182;-53
2022/09/03 02:33:58;;;;;;;0.90;0.80;;;12.90;82.00;;;;;;5243771;28;20528;-51
2022/09/03 02:36:36;;;;;;;2.77;1.30;;;12.90;82.20;;;;;;5219757;28;20256;-50
2022/09/03 02:39:07;;;;;;;0.87;0.87;;;12.90;82.40;;;;;;5239779;28;20183;-49
2022/09/03 02:41:38;;;;;;;1.90;1.07;;;12.90;83.00;;;;;;5214355;28;20460;-49
2022/09/03 02:44:25;;;;;;;1.27;1.17;;;12.80;83.30;;;;;;5213447;28;20179;-47
2022/09/03 02:47:01;;;;;;;2.67;1.33;;;12.80;83.70;;;;;;5230282;28;20257;-49
2022/09/03 02:49:32;;;;;;;1.03;1.03;;;12.80;84.10;;;;;;5217023;28;20440;-50
2022/09/03 02:52:08;;;;;;;6.63;1.10;;;12.80;84.40;;;;;;5237214;28;20420;-51
2022/09/03 02:54:39;;;;;;;0.90;0.90;;;12.80;85.00;;;;;;5235309;28;20459;-50
2022/09/03 02:57:13;;;;;;;2.20;0.73;;;12.70;84.90;;;;;;5228371;28;20523;-51
2022/09/03 02:59:44;;;;;;;1.00;1.00;;;12.70;85.80;;;;;;5243093;28;20436;-51
2022/09/03 03:02:15;;;;;;;0.70;0.70;;;12.70;86.40;;;;;;5235529;28;20439;-51
2022/09/03 03:04:45;;;;;;;3.10;1.10;;;12.60;87.30;;;;;;5229786;28;20199;-51
2022/09/03 03:07:16;;;;;;;1.03;0.90;;;12.60;87.90;;;;;;5240227;28;20213;-50
2022/09/03 03:09:47;;;;;;;1.60;1.50;;;12.60;88.60;;;;;;5250771;28;20178;-51
2022/09/03 03:12:18;;;;;;;1.60;1.20;;;12.60;89.20;;;;;;5244571;28;20209;-50
2022/09/03 03:14:49;;;;;;;1.80;1.40;;;12.50;90.00;;;;;;5254533;28;20195;-51
2022/09/03 03:17:19;;;;;;;3.30;1.00;;;12.50;90.30;;;;;;5247860;28;20477;-51
2022/09/03 03:19:50;;;;;;;1.00;1.00;;;12.50;90.70;;;;;;5221845;28;20274;-51
2022/09/03 03:22:21;;;;;;;2.37;0.90;;;12.50;90.90;;;;;;5237161;28;20200;-51
2022/09/03 03:24:54;;;;;;;2.83;1.27;;;12.40;91.10;;;;;;5222044;28;20198;-51
2022/09/03 03:27:24;;;;;;;1.10;1.10;;;12.40;91.20;;;;;;5228579;28;20178;-51
2022/09/03 03:29:56;;;;;;;1.37;0.90;;;12.40;91.20;;;;;;5229192;28;20425;-50
2022/09/03 03:32:27;;;;;;;1.07;1.00;;;12.40;91.70;;;;;;5245127;28;20173;-51
2022/09/03 03:34:58;;;;;;;3.40;1.00;;;12.40;92.00;;;;;;5239159;28;21214;-51
2022/09/03 03:37:30;;;;;;;2.97;1.33;;;12.30;92.30;;;;;;5217626;28;20183;-51
2022/09/03 03:40:01;;;;;;;1.70;1.10;;;12.30;92.60;;;;;;5236134;28;20208;-50
2022/09/03 03:42:33;;;;;;;1.20;1.17;;;12.30;92.80;;;;;;5252585;28;20979;-51
2022/09/03 03:45:05;;;;;;;1.43;1.30;;;12.30;93.20;;;;;;5217511;28;20449;-50
2022/09/03 03:47:36;;;;;;;1.40;1.40;;;12.30;93.20;;;;;;5250485;28;20524;-51
2022/09/03 03:50:07;;;;;;;1.67;1.30;;;12.30;93.30;;;;;;5228509;28;20427;-50
2022/09/03 03:52:38;;;;;;;1.10;1.03;;;12.40;93.50;;;;;;5229114;28;20435;-51
2022/09/03 03:55:08;;;;;;;1.40;1.30;;;12.40;93.60;;;;;;5244410;22;20818;-50
2022/09/03 03:57:39;;;;;;;3.80;1.00;;;12.40;93.70;;;;;;5260288;28;20225;-50
2022/09/03 04:00:10;;;;;;;3.73;1.30;;;12.40;93.60;;;;;;5275479;28;20313;-48
2022/09/03 04:02:41;;;;;;;1.60;1.23;;;12.50;93.50;;;;;;5265974;28;20189;-48
2022/09/03 04:05:11;;;;;;;1.83;1.10;;;12.50;93.60;;;;;;5272942;28;20448;-48
2022/09/03 04:07:43;;;;;;;1.37;1.27;;;12.40;93.50;;;;;;5266485;28;20186;-48
2022/09/03 04:10:14;;;;;;;4.17;1.63;;;12.50;93.70;;;;;;5259081;28;20193;-49
2022/09/03 04:12:45;;;;;;;1.90;1.00;;;12.50;94.00;;;;;;5259647;28;20436;-46
2022/09/03 04:15:15;;;;;;;0.97;0.97;;;12.40;93.90;;;;;;5258047;28;20205;-46
2022/09/03 04:17:46;;;;;;;7.10;1.10;;;12.50;94.10;;;;;;5260603;28;20547;-47
2022/09/03 04:20:16;;;;;;;1.33;1.33;;;12.50;94.60;;;;;;5264559;28;20202;-48
2022/09/03 04:22:48;;;;;;;1.57;1.37;;;12.40;94.90;;;;;;5275320;28;20237;-50
2022/09/03 04:25:18;;;;;;;5.13;1.70;;;12.40;95.30;;;;;;5263116;28;20247;-47
2022/09/03 04:27:51;;;;;;;4.57;1.97;;;12.30;95.80;;;;;;5270847;28;20435;-47
2022/09/03 04:30:21;;;;;;;1.50;1.50;;;12.30;96.30;;;;;;5275269;28;20189;-49
2022/09/03 04:32:52;;;;;;;1.47;1.37;;;12.20;96.70;;;;;;5259049;28;20441;-50
2022/09/03 04:35:24;;;;;;;3.57;1.70;;;12.20;97.60;;;;;;5264774;28;20198;-47
2022/09/03 04:37:56;;;;;;;1.10;1.10;;;12.20;98.10;;;;;;5260257;28;20182;-50
2022/09/03 04:40:27;;;;;;;1.10;1.10;;;12.20;98.40;;;;;;5261379;28;20470;-47
2022/09/03 04:42:59;;;;;;;2.50;1.63;;;12.30;99.10;;;;;;5257729;28;20429;-47
2022/09/03 04:45:30;;;;;;;4.63;1.83;;;12.30;99.30;;;;;;5257717;28;20224;-48
2022/09/03 04:48:02;;;;;;;1.77;1.67;;;12.40;99.30;;;;;;5254977;28;20428;-49
2022/09/03 04:50:34;;;;;;;1.70;1.50;;;12.40;99.40;;;;;;5246774;28;20193;-47
2022/09/03 04:53:05;;;;;;;1.70;1.70;;;12.50;99.60;;;;;;5248903;28;20404;-47
2022/09/03 04:55:37;;;;;;;1.70;1.60;;;12.50;99.70;;;;;;5260545;28;20471;-48
2022/09/03 04:58:07;;;;;;;1.20;1.10;;;12.50;99.90;;;;;;5261403;28;20427;-48
2022/09/03 05:00:38;;;;;;;5.60;1.70;;;12.60;99.90;;;;;;5253386;28;20619;-52
2022/09/03 05:03:09;;;;;;;1.67;1.27;;;12.70;99.90;;;;;;5246358;28;20228;-47
2022/09/03 05:05:40;;;;;;;1.63;1.53;;;12.80;99.90;;;;;;5265125;28;20201;-47
2022/09/03 05:08:10;;;;;;;3.97;1.57;;;13.60;97.90;;;;;;5257577;28;20206;-47
2022/09/03 05:10:41;;;;;;;1.87;1.80;;;14.70;94.20;;;;;;5252656;28;20205;-49
2022/09/03 05:13:11;;;;;;;4.30;1.57;;;15.40;90.40;;;;;;5257919;28;20194;-47
2022/09/03 05:15:42;;;;;;;1.73;1.53;;;15.50;87.40;;;;;;5260878;28;20201;-47
2022/09/03 05:18:13;;;;;;;1.60;1.50;;;14.90;88.30;;;;;;5267645;28;20204;-50
2022/09/03 05:20:44;;;;;;;1.90;1.30;;;14.20;91.00;;;;;;5251377;28;20456;-47
2022/09/03 05:23:14;;;;;;;4.30;1.73;;;13.70;93.20;;;;;;5264547;28;20199;-47
2022/09/03 05:25:56;;;;;;;1.70;1.60;;;13.40;95.40;;;;;;5258187;28;20194;-46
2022/09/03 05:28:29;;;;;;;2.00;1.90;;;13.30;97.50;;;;;;5254911;28;20174;-46
2022/09/03 05:31:04;;;;;;;1.17;1.17;;;13.20;98.90;;;;;;5265964;28;20441;-47
2022/09/03 05:33:36;;;;;;;1.50;1.20;;;13.10;99.30;;;;;;5265695;28;20449;-47
2022/09/03 05:36:10;;;;;;;2.53;1.60;;;13.20;99.70;;;;;;5251291;28;20493;-45
2022/09/03 05:38:40;;;;;;;2.53;1.60;;;13.30;99.90;;;;;;5272702;28;20978;-47
2022/09/03 05:41:13;;;;;;;5.13;1.90;;;13.40;99.80;;;;;;5254713;28;20459;-47
2022/09/03 05:43:43;;;;;;;1.63;1.53;;;13.60;99.30;;;;;;5271906;28;20178;-46
2022/09/03 05:46:17;;;;;;;2.00;1.43;;;13.90;98.50;;;;;;5269770;28;20470;-47
2022/09/03 05:48:48;;;;;;;2.20;2.00;;;14.10;97.50;;;;;;5252128;28;20179;-47
2022/09/03 05:51:18;;;;;;;5.90;2.67;;;14.20;96.70;;;;;;5251394;28;20795;-46
2022/09/03 05:53:49;;;;;;;1.47;1.37;;;14.40;96.70;;;;;;5255724;28;20189;-47
2022/09/03 05:56:22;;;;;;;1.37;1.33;;;15.30;94.80;;;;;;5251476;28;20217;-47
2022/09/03 05:58:55;;;;;;;2.10;1.50;;;15.80;91.20;;;;;;5262143;28;20197;-46
2022/09/03 06:01:29;;;;;;;1.80;1.70;;;15.20;91.40;;;;;;5251553;28;20484;-48
2022/09/03 06:04:03;;;;;;;1.40;1.40;;;14.60;93.00;;;;;;5263434;28;20532;-48
2022/09/03 06:06:36;;;;;;;1.13;1.03;;;14.20;94.60;;;;;;5255734;28;20459;-47
2022/09/03 06:09:10;;;;;;;2.27;1.60;;;13.90;96.10;;;;;;5261036;28;20522;-48
2022/09/03 06:11:41;;;;;;;1.20;1.10;;;14.00;97.20;;;;;;5259644;28;20427;-48
2022/09/03 06:14:13;;;;;;;1.30;1.20;;;14.30;97.30;;;;;;5254780;28;20473;-49
2022/09/03 06:16:48;;;;;;;1.70;1.63;;;16.10;93.60;;;;;;5255003;28;20206;-47
2022/09/03 06:19:19;;;;;;;2.43;1.37;;;19.00;77.60;;;;;;5263193;28;20442;-47
2022/09/03 06:21:51;;;;;;;2.80;1.60;;;21.40;61.60;;;;;;5263787;28;20460;-48
2022/09/03 06:24:26;;;;;;;6.17;1.70;;;23.70;52.50;;;;;;5273253;28;20212;-47
2022/09/03 06:26:57;;;;;;;2.50;1.40;;;24.40;47.40;;;;;;5263252;28;20454;-51
2022/09/03 06:29:27;;;;;;;1.30;1.30;;;24.60;45.90;;;;;;5266815;28;20427;-47
2022/09/03 06:31:58;;;;;;;1.63;1.53;;;23.50;46.30;;;;;;5264152;28;20657;-49
2022/09/03 06:34:28;;;;;;;1.67;1.57;;;22.00;49.40;;;;;;5264043;28;20541;-47
2022/09/03 06:36:59;;;;;;;1.40;1.30;;;22.70;48.60;;;;;;5262509;28;20198;-47
2022/09/03 06:39:30;;;;;;;1.63;1.20;;;23.90;46.50;;;;;;5261084;28;20201;-47
2022/09/03 06:42:00;;;;;;;0.97;0.97;;;24.30;45.80;;;;;;5256206;28;20213;-46
2022/09/03 06:44:31;;;;;;;4.53;1.40;;;23.80;45.10;;;;;;5272362;28;20534;-47
2022/09/03 06:47:02;;;;;;;1.60;1.50;;;22.60;46.70;;;;;;5260748;28;20206;-46
2022/09/03 06:49:32;;;;;;;1.50;1.40;;;20.60;49.40;;;;;;5265191;28;20536;-48
2022/09/03 06:52:03;;;;;;;2.20;1.57;;;18.90;53.40;;;;;;5260343;28;20186;-47
2022/09/03 06:54:33;;;;;;;1.87;1.43;;;17.80;56.40;;;;;;5258078;28;20276;-49
2022/09/03 06:57:04;;;;;;;2.13;1.87;;;17.20;58.40;;;;;;5271343;28;21830;-47
2022/09/03 06:59:35;;;;;;;1.47;1.37;;;16.80;60.20;;;;;;5255074;28;20598;-47
2022/09/03 07:02:05;;;;;;;1.50;1.40;;;16.70;62.30;;;;;;5265630;28;20296;-47
2022/09/03 07:04:36;;;;;;;1.63;1.53;;;17.00;62.20;;;;;;5266920;28;20262;-47
2022/09/03 07:07:12;;;;;;;2.10;1.47;;;18.10;60.30;;;;;;5268304;28;20285;-48
2022/09/03 07:09:42;;;;;;;1.13;1.10;;;19.70;57.60;;;;;;5266673;28;20216;-47
2022/09/03 07:12:15;;;;;;;1.47;1.13;;;21.00;53.20;;;;;;5254121;28;20435;-48
2022/09/03 07:14:46;;;;;;;1.63;1.63;;;21.00;52.20;;;;;;5254547;28;20285;-48
2022/09/03 07:17:17;;;;;;;1.90;1.80;;;21.00;52.40;;;;;;5251558;28;20443;-48
2022/09/03 07:19:48;;;;;;;1.20;1.20;;;21.20;52.00;;;;;;5259309;28;20443;-47
2022/09/03 07:22:19;;;;;;;3.23;1.60;;;21.70;50.80;;;;;;5257011;28;20194;-48
2022/09/03 07:24:51;;;;;;;1.10;1.10;;;22.80;48.90;;;;;;5259215;28;20572;-48
2022/09/03 07:27:21;;;;;;;2.33;1.20;;;23.70;47.10;;;;;;5259155;28;20174;-49
2022/09/03 07:29:52;;;;;;;1.10;1.10;;;24.90;45.60;;;;;;5272153;28;20443;-51
2022/09/03 07:32:22;;;;;;;1.20;1.20;;;26.00;42.10;;;;;;5255084;28;20545;-52
2022/09/03 07:34:53;;;;;;;1.30;1.20;;;26.80;40.90;;;;;;5272625;28;20245;-47
2022/09/03 07:37:24;;;;;;;3.40;1.73;;;25.30;41.10;;;;;;5264112;28;20190;-48
2022/09/03 07:39:54;;;;;;;3.03;1.27;;;24.60;43.60;;;;;;5267614;28;20639;-49
2022/09/03 07:42:29;;;;;;;1.40;1.00;;;24.60;42.30;;;;;;5261001;28;20237;-47
2022/09/03 07:45:04;;;;;;;2.13;1.30;;;22.60;44.80;;;;;;5257056;28;20223;-49
2022/09/03 07:47:36;;;;;;;1.00;1.00;;;21.20;48.20;;;;;;5263578;28;20432;-47
2022/09/03 07:50:06;;;;;;;2.07;1.20;;;22.50;47.30;;;;;;5258680;28;20948;-47
2022/09/03 07:52:37;;;;;;;1.20;1.10;;;23.10;45.20;;;;;;5254467;28;20471;-48
2022/09/03 07:55:08;;;;;;;7.00;1.03;;;22.50;46.60;;;;;;5261146;28;20225;-51
2022/09/03 07:57:41;;;;;;;1.53;1.43;;;23.80;45.30;;;;;;5253877;28;20177;-50
2022/09/03 08:00:13;;;;;;;1.30;1.20;;;23.90;44.50;;;;;;5269396;28;20656;-46
2022/09/03 08:02:43;;;;;;;1.07;1.03;;;22.30;46.30;;;;;;5261282;28;20508;-47
2022/09/03 08:05:15;;;;;;;3.70;1.67;;;21.10;49.40;;;;;;5263479;28;21023;-49
2022/09/03 08:07:45;;;;;;;8.43;1.37;;;20.60;49.80;;;;;;5252731;28;20182;-50
2022/09/03 08:10:16;;;;;;;1.50;1.40;;;20.20;50.90;;;;;;5255384;28;20447;-47
2022/09/03 08:12:46;;;;;;;1.10;1.10;;;20.20;51.60;;;;;;5256686;28;20196;-48
2022/09/03 08:15:17;;;;;;;1.17;1.17;;;19.70;51.00;;;;;;5250090;28;20205;-49
2022/09/03 08:17:48;;;;;;;1.40;1.30;;;19.50;52.40;;;;;;5263412;28;20189;-48
2022/09/03 08:20:19;;;;;;;4.33;2.07;;;19.30;53.10;;;;;;5251171;28;20263;-48
2022/09/03 08:22:50;;;;;;;4.63;2.60;;;19.10;53.70;;;;;;5252028;28;20306;-48
2022/09/03 08:25:20;;;;;;;3.83;1.60;;;19.30;54.20;;;;;;5262353;28;21107;-48
2022/09/03 08:27:51;;;;;;;3.00;1.70;;;19.40;53.70;;;;;;5262786;28;20178;-49
2022/09/03 08:30:23;;;;;;;1.80;1.70;;;20.10;53.20;;;;;;5249874;28;20178;-47
2022/09/03 08:32:54;;;;;;;1.17;1.17;;;20.60;52.50;;;;;;5266729;28;20238;-48
2022/09/03 08:35:25;;;;;;;1.73;1.43;;;21.30;51.30;;;;;;5251200;28;20535;-48
2022/09/03 08:37:55;;;;;;;1.20;1.13;;;21.10;51.00;;;;;;5252955;28;20443;-48
2022/09/03 08:40:26;;;;;;;1.80;1.50;;;20.90;50.80;;;;;;5251678;28;20202;-48
2022/09/03 08:43:04;;;;;;;6.87;2.00;;;20.50;51.20;;;;;;5253225;28;20182;-48
2022/09/03 08:45:37;;;;;;;1.40;1.30;;;20.30;52.40;;;;;;5258014;28;20684;-48
2022/09/03 08:48:20;;;;;;;1.93;1.63;;;19.80;52.70;;;;;;5249719;28;20928;-53
2022/09/03 08:50:58;;;;;;;4.10;1.40;;;19.20;53.90;;;;;;5263089;28;21042;-48
2022/09/03 08:53:45;;;;;;;3.47;1.20;;;18.90;54.90;;;;;;5267916;28;20466;-48
2022/09/03 08:56:30;;;;;;;2.53;1.50;;;18.60;55.40;;;;;;5253229;28;20480;-47
2022/09/03 08:59:03;;;;;;;6.40;1.33;;;18.40;56.60;;;;;;5249415;28;20478;-47
2022/09/03 09:01:48;;;;;;;1.93;1.80;;;18.30;57.00;;;;;;5255898;28;20931;-48
2022/09/03 09:04:41;;;;;;;3.53;1.90;;;18.20;57.20;;;;;;5249142;28;20442;-47
2022/09/03 09:07:33;;;;;;;1.53;1.30;;;18.30;57.30;;;;;;5257308;28;20965;-48
2022/09/03 09:10:15;;;;;;;3.33;1.60;;;18.50;57.00;;;;;;5261788;28;20428;-49
2022/09/03 09:13:17;;;;;;;1.27;1.17;;;18.60;56.60;;;;;;5253166;28;20435;-48
2022/09/03 09:15:54;;;;;;;5.87;1.30;;;18.60;56.30;;;;;;5259354;28;20469;-50
2022/09/03 09:18:48;;;;;;;1.10;1.10;;;18.70;55.80;;;;;;5245375;28;20442;-47
2022/09/03 09:21:32;;;;;;;1.43;1.07;;;18.90;55.90;;;;;;5257252;28;20876;-49
2022/09/03 09:24:11;;;;;;;16.50;1.30;;;18.90;55.20;;;;;;5264800;28;20546;-49
2022/09/03 09:26:44;;;;;;;3.33;1.20;;;18.90;55.00;;;;;;5259058;28;20490;-49
2022/09/03 09:29:15;;;;;;;2.43;1.60;;;19.00;54.00;;;;;;5257456;28;20431;-48
2022/09/03 09:31:46;;;;;;;1.47;1.40;;;19.00;54.30;;;;;;5255853;28;20464;-49
2022/09/03 09:34:17;;;;;;;2.40;1.03;;;19.10;54.50;;;;;;5268956;28;20450;-47
2022/09/03 09:36:52;;;;;;;1.27;1.27;;;19.10;54.10;;;;;;5248547;28;20301;-51
2022/09/03 09:39:23;;;;;;;1.10;1.10;;;19.10;53.90;;;;;;5254604;28;20746;-51
2022/09/03 09:42:07;;;;;;;1.20;1.20;;;19.20;53.30;;;;;;5258570;28;20570;-47
2022/09/03 09:44:42;;;;;;;1.20;1.17;;;19.10;53.30;;;;;;5267624;28;20242;-49
2022/09/03 09:47:26;;;;;;;1.80;1.33;;;19.20;53.90;;;;;;5252928;28;20442;-51
2022/09/03 09:49:59;;;;;;;1.03;1.03;;;19.30;53.60;;;;;;5258587;28;20447;-53
2022/09/03 09:52:30;;;;;;;5.50;1.10;;;19.40;53.70;;;;;;5257136;28;20440;-50
2022/09/03 09:57:37;;;;;;;1.30;1.10;;;19.60;52.90;;;;;;5212205;28;20564;-50
2022/09/03 10:00:13;;;;;;;2.20;1.20;;;19.70;52.40;;;;;;5211326;28;20430;-50
2022/09/03 10:02:49;;;;;;;1.60;1.10;;;19.70;51.00;;;;;;5216803;28;20526;-50
2022/09/03 10:05:24;;;;;;;2.93;1.70;;;19.80;51.80;;;;;;5220501;28;20875;-48
2022/09/03 10:08:20;;;;;;;1.20;1.10;;;19.90;50.00;;;;;;5221295;28;20448;-49
2022/09/03 10:10:51;;;;;;;1.03;1.03;;;20.00;49.20;;;;;;5204628;28;20448;-50
2022/09/03 10:13:29;;;;;;;3.17;1.30;;;20.00;49.50;;;;;;5225774;28;20951;-51
2022/09/03 10:16:02;;;;;;;1.70;1.03;;;20.00;48.90;;;;;;5232108;28;20484;-50
2022/09/03 10:18:41;;;;;;;1.20;1.10;;;20.00;48.80;;;;;;5217339;28;20429;-51
2022/09/03 10:21:18;;;;;;;1.13;1.13;;;20.20;46.60;;;;;;5222091;28;20448;-53
2022/09/03 10:23:49;;;;;;;0.70;0.70;;;20.30;47.10;;;;;;5214098;28;20440;-50
2022/09/03 10:26:27;;;;;;;3.40;1.27;;;20.40;46.70;;;;;;5221567;28;20797;-48
2022/09/03 10:29:01;;;;;;;0.87;0.80;;;20.30;46.60;;;;;;5219793;28;20550;-49
2022/09/03 10:31:37;;;;;;;1.00;0.90;;;20.20;46.60;;;;;;5216374;28;20893;-49
2022/09/03 10:34:20;;;;;;;5.40;1.00;;;20.30;45.40;;;;;;5220171;28;20441;-51
2022/09/03 10:37:17;;;;;;;1.30;1.20;;;20.30;46.40;;;;;;5220490;28;20931;-52
2022/09/03 10:39:47;;;;;;;2.43;1.00;;;20.40;45.80;;;;;;5215815;28;20839;-51
2022/09/03 10:42:27;;;;;;;4.00;1.03;;;20.50;44.30;;;;;;5218214;28;20514;-50
2022/09/03 10:45:03;;;;;;;1.20;1.20;;;20.50;43.90;;;;;;5237361;28;20182;-50
2022/09/03 10:47:48;;;;;;;1.70;0.93;;;20.50;44.40;;;;;;5212595;28;20441;-50
2022/09/03 10:50:57;;;;;;;1.40;1.30;;;20.60;45.00;;;;;;5219055;28;20915;-50
2022/09/03 10:53:52;;;;;;;2.70;2.40;;;20.70;44.80;;;;;;5165827;28;20539;-53
2022/09/03 10:56:53;;;;;;;1.10;1.00;;;20.60;44.90;;;;;;5220127;28;20473;-54
2022/09/03 10:59:46;;;;;;;2.30;1.27;;;20.50;45.20;;;;;;5224155;28;20429;-54
2022/09/03 11:02:37;;;;;;;1.80;1.20;;;20.60;45.10;;;;;;5221846;28;20468;-54
2022/09/03 11:05:15;;;;;;;1.33;0.97;;;20.60;45.50;;;;;;5220029;28;20520;-54
2022/09/03 11:07:49;;;;;;;4.87;1.50;;;20.50;45.90;;;;;;5223244;28;20552;-54
2022/09/03 11:10:39;;;;;;;3.60;1.23;;;20.70;46.00;;;;;;5221359;28;20930;-54
2022/09/03 11:13:34;;;;;;;2.33;1.17;;;21.00;46.10;;;;;;5220343;28;20961;-54
2022/09/03 11:16:10;;;;;;;2.00;1.40;;;21.20;45.80;;;;;;5225295;28;21559;-54
2022/09/03 11:19:06;;;;;;;1.10;1.00;;;21.40;45.00;;;;;;5230208;28;20441;-53
2022/09/03 11:21:40;;;;;;;4.23;1.20;;;21.40;44.50;;;;;;5223673;28;20816;-49
2022/09/03 11:24:25;;;;;;;1.73;1.63;;;21.40;44.30;;;;;;5225718;28;20547;-55
2022/09/03 11:27:22;;;;;;;1.30;1.20;;;21.60;44.50;;;;;;5219158;28;20538;-54
2022/09/03 11:29:57;;;;;;;1.00;1.00;;;21.60;44.40;;;;;;5221083;28;20849;-51
2022/09/03 11:32:55;;;;;;;0.97;0.97;;;21.60;43.70;;;;;;5219982;28;20452;-53
2022/09/03 11:35:37;;;;;;;1.00;1.00;;;21.50;43.80;;;;;;5214477;28;20555;-53
2022/09/03 11:38:23;;;;;;;0.80;0.80;;;21.50;44.30;;;;;;5219950;28;20878;-50
2022/09/03 11:41:02;;;;;;;3.90;1.30;;;21.60;44.20;;;;;;5221521;28;20465;-52
2022/09/03 11:43:33;;;;;;;3.43;2.80;;;21.80;43.30;;;;;;5221285;28;20484;-54
2022/09/03 11:46:12;;;;;;;1.20;1.20;;;21.90;43.20;;;;;;5219377;28;20540;-53
2022/09/03 11:49:10;;;;;;;3.50;1.40;;;21.80;43.00;;;;;;5227316;28;20426;-50
2022/09/03 11:51:42;;;;;;;1.33;1.23;;;21.50;43.50;;;;;;5218805;28;20529;-54
2022/09/03 11:54:19;;;;;;;3.27;1.50;;;21.10;44.20;;;;;;5216971;28;20491;-53
2022/09/03 11:56:50;;;;;;;2.20;1.47;;;20.90;45.00;;;;;;5222563;28;20985;-53
2022/09/03 11:59:25;;;;;;;1.00;1.00;;;20.90;45.60;;;;;;5217915;28;20879;-54
2022/09/03 12:02:34;;;;;;;3.50;1.40;;;21.00;45.20;;;;;;5216914;28;20556;-55
2022/09/03 12:05:24;;;;;;;1.30;1.20;;;21.40;44.30;;;;;;5221189;28;20535;-53
2022/09/03 12:08:06;;;;;;;0.90;0.90;;;21.50;44.10;;;;;;5218831;28;20768;-55
2022/09/03 12:10:55;;;;;;;1.00;1.00;;;21.30;43.70;;;;;;5218495;28;20532;-51
2022/09/03 12:13:31;;;;;;;1.30;1.13;;;21.30;44.30;;;;;;5219974;28;20822;-51
2022/09/03 12:16:40;;;;;;;1.67;1.10;;;21.20;43.70;;;;;;5213845;28;20509;-50
2022/09/03 12:19:34;;;;;;;1.10;1.10;;;21.30;43.90;;;;;;5181845;28;20547;-50
2022/09/03 12:22:05;;;;;;;1.40;1.30;;;21.30;43.10;;;;;;5162777;28;20462;-50
2022/09/03 12:24:36;;;;;;;1.77;1.10;;;21.20;43.80;;;;;;5222989;28;20425;-51
2022/09/03 12:27:11;;;;;;;1.27;1.17;;;21.30;43.50;;;;;;5212934;28;20199;-50
2022/09/03 12:30:00;;;;;;;2.60;1.50;;;21.40;43.60;;;;;;5216750;28;20595;-49
2022/09/03 12:32:39;;;;;;;0.90;0.90;;;21.60;43.20;;;;;;5218368;28;20504;-48
2022/09/03 12:35:18;;;;;;;3.50;1.30;;;21.80;42.90;;;;;;5238303;28;20929;-48
2022/09/03 12:37:51;;;;;;;1.13;0.80;;;22.00;42.60;;;;;;5215452;28;20957;-49
2022/09/03 12:40:25;;;;;;;1.90;0.87;;;21.90;41.80;;;;;;5243261;28;20464;-50
2022/09/03 12:43:14;;;;;;;1.10;1.10;;;22.00;41.00;;;;;;5222864;28;20812;-48
2022/09/03 12:45:47;;;;;;;4.73;1.13;;;22.10;40.50;;;;;;5219033;28;20533;-51
2022/09/03 12:48:19;;;;;;;1.90;0.90;;;22.40;40.60;;;;;;5221957;28;20445;-52
2022/09/03 12:51:00;;;;;;;1.17;0.90;;;22.50;40.10;;;;;;5221979;28;20451;-52
2022/09/03 12:53:32;;;;;;;1.77;1.20;;;22.40;39.90;;;;;;5215408;28;20439;-54
2022/09/03 12:56:03;;;;;;;2.87;1.30;;;22.20;40.40;;;;;;5221177;28;20460;-54
2022/09/03 12:58:46;;;;;;;1.10;1.07;;;22.30;40.00;;;;;;5217048;28;20441;-51
2022/09/03 13:01:25;;;;;;;1.00;1.00;;;22.10;39.00;;;;;;5215569;28;20660;-53
2022/09/03 13:04:11;;;;;;;2.20;1.07;;;21.80;40.10;;;;;;5217499;28;20577;-53
2022/09/03 13:07:00;;;;;;;1.27;1.27;;;22.00;40.50;;;;;;5234025;28;20858;-54
2022/09/03 13:09:34;;;;;;;1.10;1.00;;;22.00;41.00;;;;;;5230265;28;20910;-54
2022/09/03 13:12:05;;;;;;;2.40;1.00;;;21.70;40.00;;;;;;5220333;28;20961;-51
2022/09/03 13:14:46;;;;;;;0.83;0.83;;;21.40;41.10;;;;;;5219885;28;20433;-52
2022/09/03 13:17:46;;;;;;;0.93;0.90;;;21.40;41.10;;;;;;5220484;28;20441;-53
2022/09/03 13:20:42;;;;;;;1.17;1.13;;;21.50;41.10;;;;;;5215873;28;20509;-53
2022/09/03 13:23:34;;;;;;;0.70;0.70;;;21.60;41.00;;;;;;5219301;28;20964;-53
2022/09/03 13:26:10;;;;;;;1.27;1.27;;;21.70;40.90;;;;;;5219267;28;20989;-53
2022/09/03 13:29:14;;;;;;;1.07;1.07;;;21.80;40.70;;;;;;5212928;28;20457;-51
2022/09/03 13:32:16;;;;;;;1.27;1.23;;;22.10;40.30;;;;;;5218525;28;20536;-51
2022/09/03 13:34:52;;;;;;;2.83;0.90;;;22.30;40.40;;;;;;5197994;28;20440;-53
2022/09/03 13:37:54;;;;;;;3.53;1.00;;;22.40;40.00;;;;;;5216178;28;20457;-52
2022/09/03 13:40:41;;;;;;;2.10;1.00;;;22.40;39.70;;;;;;5220539;28;20465;-53
2022/09/03 13:43:40;;;;;;;1.20;1.10;;;22.40;39.70;;;;;;5217957;28;20441;-54
2022/09/03 13:46:36;;;;;;;2.20;1.00;;;22.50;40.30;;;;;;5221124;28;21051;-54